Time;durP1;ratioP1;P1;durP2;ratioP2;P2;SDS_P1;SDS_P2;PMS_P1;PMS_P2;Temp;Humidity;BMP_temperature;BMP_pressure;BME280_temperature;BME280_humidity;BME280_pressure;Samples;Min_cycle;Max_cycle;Signal;HPM_P1;HPM_P2
2023/04/08 00:01:07;;;;;;;24.60;22.60;;;;;;;;;;5018256;28;20456;-83
2023/04/08 00:03:34;;;;;;;24.43;22.90;;;;;;;;;;5018347;28;20205;-83
2023/04/08 00:06:02;;;;;;;25.40;23.73;;;;;;;;;;5018277;28;20434;-83
2023/04/08 00:08:29;;;;;;;24.47;22.87;;;;;;;;;;5018379;28;20260;-83
2023/04/08 00:10:58;;;;;;;24.55;22.85;;;;;;;;;;5018088;28;20861;-83
2023/04/08 00:13:26;;;;;;;25.25;23.65;;;;;;;;;;5018089;28;20596;-83
2023/04/08 00:15:53;;;;;;;24.90;23.30;;;;;;;;;;5018000;28;20274;-83
2023/04/08 00:18:20;;;;;;;24.67;22.95;;;;;;;;;;5018002;28;20477;-83
2023/04/08 00:20:47;;;;;;;25.02;23.42;;;;;;;;;;5017393;28;20574;-83
2023/04/08 00:23:14;;;;;;;24.20;22.40;;;;;;;;;;5017857;28;20603;-83
2023/04/08 00:25:41;;;;;;;24.13;22.63;;;;;;;;;;5017279;28;20260;-83
2023/04/08 00:28:10;;;;;;;24.85;23.33;;;;;;;;;;5017217;28;20271;-83
2023/04/08 00:30:37;;;;;;;24.10;22.70;;;;;;;;;;5017978;28;20216;-83
2023/04/08 00:33:04;;;;;;;25.30;23.70;;;;;;;;;;5018250;28;20457;-83
2023/04/08 00:35:31;;;;;;;25.10;23.27;;;;;;;;;;5017469;28;20211;-83
2023/04/08 00:37:58;;;;;;;25.13;23.43;;;;;;;;;;5017504;28;20661;-83
2023/04/08 00:40:25;;;;;;;23.77;22.47;;;;;;;;;;5017690;28;20419;-83
2023/04/08 00:42:52;;;;;;;25.80;24.10;;;;;;;;;;5017211;28;20800;-83
2023/04/08 00:45:21;;;;;;;24.85;22.95;;;;;;;;;;5018813;28;20202;-83
2023/04/08 00:47:51;;;;;;;24.98;23.45;;;;;;;;;;5023639;28;20255;-83
2023/04/08 00:50:18;;;;;;;24.58;23.08;;;;;;;;;;5018661;28;20228;-83
2023/04/08 00:52:45;;;;;;;25.60;24.00;;;;;;;;;;5016976;28;20666;-83
2023/04/08 00:55:12;;;;;;;23.67;22.27;;;;;;;;;;5016402;28;20213;-82
2023/04/08 00:57:39;;;;;;;24.60;23.10;;;;;;;;;;5014954;28;20259;-82
2023/04/08 01:00:08;;;;;;;24.93;23.33;;;;;;;;;;5016835;28;20542;-83
2023/04/08 01:02:40;;;;;;;25.17;23.55;;;;;;;;;;5017078;28;20434;-83
2023/04/08 01:05:08;;;;;;;23.40;21.90;;;;;;;;;;5016661;28;20209;-83
2023/04/08 01:07:37;;;;;;;24.70;23.10;;;;;;;;;;5015462;28;20461;-83
2023/04/08 01:10:06;;;;;;;24.63;23.13;;;;;;;;;;5015721;28;20977;-83
2023/04/08 01:12:38;;;;;;;24.40;22.90;;;;;;;;;;5015061;28;20278;-83
2023/04/08 01:15:05;;;;;;;24.43;22.80;;;;;;;;;;5015186;28;20200;-83
2023/04/08 01:17:33;;;;;;;25.07;23.37;;;;;;;;;;5015339;28;20419;-83
2023/04/08 01:20:03;;;;;;;24.60;23.10;;;;;;;;;;5016148;28;20992;-83
2023/04/08 01:22:35;;;;;;;25.15;23.63;;;;;;;;;;5020434;28;20425;-83
2023/04/08 01:25:06;;;;;;;25.00;23.40;;;;;;;;;;5023430;28;20209;-83
2023/04/08 01:27:35;;;;;;;25.00;23.50;;;;;;;;;;5019604;28;20434;-83
2023/04/08 01:30:03;;;;;;;25.63;23.95;;;;;;;;;;5018410;28;20488;-82
2023/04/08 01:32:31;;;;;;;24.70;23.17;;;;;;;;;;5013549;28;20206;-83
2023/04/08 01:34:59;;;;;;;25.80;24.00;;;;;;;;;;5013997;28;20503;-82
2023/04/08 01:37:27;;;;;;;25.10;23.50;;;;;;;;;;5013342;28;20415;-83
2023/04/08 01:39:56;;;;;;;24.87;23.37;;;;;;;;;;5013995;28;20872;-83
2023/04/08 01:42:24;;;;;;;24.93;23.40;;;;;;;;;;5015258;28;20455;-83
2023/04/08 01:44:53;;;;;;;24.75;22.92;;;;;;;;;;5013967;28;20523;-83
2023/04/08 01:47:20;;;;;;;24.60;23.00;;;;;;;;;;5013382;28;20205;-83
2023/04/08 01:49:48;;;;;;;25.27;23.57;;;;;;;;;;5013598;28;20534;-82
2023/04/08 01:52:17;;;;;;;24.07;22.47;;;;;;;;;;5013949;28;20495;-82
2023/04/08 01:54:44;;;;;;;24.27;22.77;;;;;;;;;;5013936;28;20430;-83
2023/04/08 01:57:12;;;;;;;25.07;23.37;;;;;;;;;;5013428;28;20439;-83
2023/04/08 01:59:41;;;;;;;26.20;24.40;;;;;;;;;;5014728;28;20443;-82
2023/04/08 02:02:10;;;;;;;25.65;23.88;;;;;;;;;;5014342;28;20415;-82
2023/04/08 02:04:37;;;;;;;38.00;35.10;;;;;;;;;;5014064;28;20263;-83
2023/04/08 02:07:05;;;;;;;33.70;30.77;;;;;;;;;;5013638;28;20510;-83
2023/04/08 02:09:33;;;;;;;30.60;28.30;;;;;;;;;;5013932;28;20324;-83
2023/04/08 02:12:00;;;;;;;31.27;28.93;;;;;;;;;;5016981;28;20435;-83
2023/04/08 02:14:30;;;;;;;28.40;26.50;;;;;;;;;;5017650;28;20947;-82
2023/04/08 02:17:02;;;;;;;29.23;27.23;;;;;;;;;;5017165;28;20952;-83
2023/04/08 02:19:34;;;;;;;28.40;26.50;;;;;;;;;;5017729;28;20287;-83
2023/04/08 02:22:03;;;;;;;25.57;23.97;;;;;;;;;;5017994;28;20444;-83
2023/04/08 02:24:32;;;;;;;26.77;24.77;;;;;;;;;;5017736;28;20452;-83
2023/04/08 02:26:59;;;;;;;25.85;24.05;;;;;;;;;;5017273;28;20423;-83
2023/04/08 02:29:27;;;;;;;25.38;23.80;;;;;;;;;;5017466;28;20221;-83
2023/04/08 02:31:55;;;;;;;24.87;23.17;;;;;;;;;;5017908;28;20256;-84
2023/04/08 02:34:22;;;;;;;25.07;23.57;;;;;;;;;;5017486;28;20523;-83
2023/04/08 02:36:51;;;;;;;24.37;22.53;;;;;;;;;;5016970;28;20444;-83
2023/04/08 02:39:18;;;;;;;23.98;22.55;;;;;;;;;;5017525;28;20517;-83
2023/04/08 02:41:45;;;;;;;24.67;23.07;;;;;;;;;;5017591;28;20260;-83
2023/04/08 02:44:12;;;;;;;24.23;22.63;;;;;;;;;;5017445;28;20924;-83
2023/04/08 02:46:39;;;;;;;23.60;22.15;;;;;;;;;;5017078;28;20452;-83
2023/04/08 02:49:06;;;;;;;23.97;22.30;;;;;;;;;;5017110;28;20233;-83
2023/04/08 02:51:33;;;;;;;24.13;22.70;;;;;;;;;;5017388;28;20448;-83
2023/04/08 02:54:02;;;;;;;24.77;22.83;;;;;;;;;;5017260;28;20206;-83
2023/04/08 02:56:29;;;;;;;24.25;22.75;;;;;;;;;;5016881;28;20431;-83
2023/04/08 02:58:56;;;;;;;24.23;22.73;;;;;;;;;;5017247;28;20265;-83
2023/04/08 03:01:23;;;;;;;23.85;22.35;;;;;;;;;;5017076;28;20423;-83
2023/04/08 03:03:50;;;;;;;23.63;22.20;;;;;;;;;;5017436;28;20237;-82
2023/04/08 03:06:17;;;;;;;23.70;22.37;;;;;;;;;;5016726;28;20431;-83
2023/04/08 03:08:44;;;;;;;23.50;21.80;;;;;;;;;;5016966;28;20463;-83
2023/04/08 03:11:13;;;;;;;23.33;21.92;;;;;;;;;;5016699;28;20480;-82
2023/04/08 03:13:40;;;;;;;23.57;22.07;;;;;;;;;;5017166;28;20194;-83
2023/04/08 03:16:07;;;;;;;25.30;23.58;;;;;;;;;;5016929;28;20823;-83
2023/04/08 03:18:34;;;;;;;24.42;23.02;;;;;;;;;;5016878;28;20300;-83
2023/04/08 03:21:02;;;;;;;23.80;22.20;;;;;;;;;;5017185;28;20209;-82
2023/04/08 03:23:29;;;;;;;24.10;22.60;;;;;;;;;;5016543;28;20444;-83
2023/04/08 03:25:56;;;;;;;23.87;22.47;;;;;;;;;;5016607;28;20423;-82
2023/04/08 03:28:24;;;;;;;24.03;22.50;;;;;;;;;;5016942;28;20477;-82
2023/04/08 03:30:51;;;;;;;25.83;24.10;;;;;;;;;;5017024;28;20463;-83
2023/04/08 03:33:18;;;;;;;24.20;22.63;;;;;;;;;;5016558;28;20440;-83
2023/04/08 03:35:45;;;;;;;24.40;22.90;;;;;;;;;;5016305;28;20433;-83
2023/04/08 03:38:12;;;;;;;24.10;22.60;;;;;;;;;;5016872;28;20271;-83
2023/04/08 03:40:39;;;;;;;24.27;22.87;;;;;;;;;;5017071;28;20937;-83
2023/04/08 03:43:07;;;;;;;24.03;22.30;;;;;;;;;;5016790;28;20455;-83
2023/04/08 03:45:35;;;;;;;24.70;23.30;;;;;;;;;;5016477;28;20431;-83
2023/04/08 03:48:02;;;;;;;25.17;23.57;;;;;;;;;;5017004;28;20498;-83
2023/04/08 03:50:30;;;;;;;25.20;23.60;;;;;;;;;;5016684;28;20476;-83
2023/04/08 03:52:57;;;;;;;25.77;24.02;;;;;;;;;;5017122;28;20448;-83
2023/04/08 03:55:24;;;;;;;25.03;23.43;;;;;;;;;;5016427;28;20261;-83
2023/04/08 03:57:51;;;;;;;24.43;22.73;;;;;;;;;;5016172;28;20489;-83
2023/04/08 04:00:18;;;;;;;24.93;23.23;;;;;;;;;;5016465;28;20423;-83
2023/04/08 04:02:47;;;;;;;24.17;22.57;;;;;;;;;;5016622;28;20820;-82
2023/04/08 04:05:14;;;;;;;25.07;23.37;;;;;;;;;;5016544;28;20452;-83
2023/04/08 04:07:41;;;;;;;25.80;23.90;;;;;;;;;;5016191;28;20989;-83
2023/04/08 04:10:10;;;;;;;25.10;23.50;;;;;;;;;;5016781;28;20230;-83
2023/04/08 04:12:37;;;;;;;25.20;23.60;;;;;;;;;;5016583;28;20421;-84
2023/04/08 04:15:05;;;;;;;25.15;23.48;;;;;;;;;;5016280;28;20495;-83
2023/04/08 04:17:32;;;;;;;25.15;23.45;;;;;;;;;;5016040;28;20581;-82
2023/04/08 04:20:00;;;;;;;26.10;24.37;;;;;;;;;;5016113;28;20234;-83
2023/04/08 04:22:27;;;;;;;25.93;24.20;;;;;;;;;;5016077;28;20457;-83
2023/04/08 04:24:54;;;;;;;26.20;24.40;;;;;;;;;;5016387;28;20457;-83
2023/04/08 04:27:21;;;;;;;26.30;24.60;;;;;;;;;;5015620;28;20259;-83
2023/04/08 04:29:48;;;;;;;25.17;23.47;;;;;;;;;;5015904;28;21018;-83
2023/04/08 04:32:15;;;;;;;27.33;25.30;;;;;;;;;;5016213;28;20464;-83
2023/04/08 04:34:43;;;;;;;26.00;24.20;;;;;;;;;;5015987;28;20852;-82
2023/04/08 04:37:12;;;;;;;26.83;24.92;;;;;;;;;;5015539;28;20562;-83
2023/04/08 04:39:39;;;;;;;26.00;24.20;;;;;;;;;;5016152;28;20217;-83
2023/04/08 04:42:06;;;;;;;26.53;24.70;;;;;;;;;;5016082;28;20209;-83
2023/04/08 04:44:33;;;;;;;26.83;24.87;;;;;;;;;;5016039;28;20452;-83
2023/04/08 04:47:00;;;;;;;25.90;24.20;;;;;;;;;;5015332;28;20444;-83
2023/04/08 04:49:27;;;;;;;28.10;26.13;;;;;;;;;;5016238;28;20650;-83
2023/04/08 04:51:54;;;;;;;25.30;23.60;;;;;;;;;;5015677;28;20496;-83
2023/04/08 04:54:23;;;;;;;114.75;90.00;;;;;;;;;;5016072;28;20855;-83
2023/04/08 04:56:49;;;;;;;399.70;135.40;;;;;;;;;;5015275;28;20268;-83
2023/04/08 04:59:19;;;;;;;339.98;133.02;;;;;;;;;;5015689;28;20275;-83
2023/04/08 05:01:46;;;;;;;287.35;108.78;;;;;;;;;;5015544;28;20185;-79
2023/04/08 05:04:13;;;;;;;328.45;119.07;;;;;;;;;;5015243;28;20206;-79
2023/04/08 05:06:40;;;;;;;178.55;98.65;;;;;;;;;;5014845;28;20256;-79
2023/04/08 05:09:07;;;;;;;290.52;105.63;;;;;;;;;;5015563;28;20240;-78
2023/04/08 05:11:35;;;;;;;203.52;96.72;;;;;;;;;;5015564;28;20218;-79
2023/04/08 05:14:02;;;;;;;216.10;106.13;;;;;;;;;;5015441;28;20264;-79
2023/04/08 05:16:29;;;;;;;366.40;123.32;;;;;;;;;;5014488;28;20240;-79
2023/04/08 05:18:56;;;;;;;359.52;125.05;;;;;;;;;;5015265;28;20221;-79
2023/04/08 05:21:23;;;;;;;311.60;111.22;;;;;;;;;;5015314;28;20182;-78
2023/04/08 05:23:51;;;;;;;389.77;117.55;;;;;;;;;;5015133;28;20213;-79
2023/04/08 05:26:18;;;;;;;388.48;120.32;;;;;;;;;;5014954;28;20205;-79
2023/04/08 05:28:47;;;;;;;382.00;120.38;;;;;;;;;;5014349;28;20338;-79
2023/04/08 05:31:16;;;;;;;305.35;114.97;;;;;;;;;;5014861;28;20221;-79
2023/04/08 05:33:43;;;;;;;307.75;107.10;;;;;;;;;;5015302;28;20640;-78
2023/04/08 05:36:11;;;;;;;355.63;117.20;;;;;;;;;;5014557;28;20263;-79
2023/04/08 05:38:38;;;;;;;195.98;99.03;;;;;;;;;;5015277;28;20229;-79
2023/04/08 05:41:05;;;;;;;377.90;122.20;;;;;;;;;;5019466;28;20213;-79
2023/04/08 05:43:33;;;;;;;106.57;64.57;;;;;;;;;;5037587;28;20193;-79
2023/04/08 05:46:01;;;;;;;213.73;112.18;;;;;;;;;;5038075;28;20206;-79
2023/04/08 05:48:28;;;;;;;158.23;102.57;;;;;;;;;;5028076;28;20226;-80
2023/04/08 05:50:55;;;;;;;78.03;71.37;;;;;;;;;;5022309;28;20222;-79
2023/04/08 05:53:23;;;;;;;126.68;89.70;;;;;;;;;;5022218;28;20444;-79
2023/04/08 05:55:50;;;;;;;71.30;65.60;;;;;;;;;;5021515;28;20236;-80
2023/04/08 05:58:17;;;;;;;105.95;91.57;;;;;;;;;;5021481;28;20472;-80
2023/04/08 06:00:44;;;;;;;109.50;89.90;;;;;;;;;;5021409;28;20205;-79
2023/04/08 06:03:13;;;;;;;74.77;68.77;;;;;;;;;;5019197;28;20236;-79
2023/04/08 06:05:40;;;;;;;95.67;85.27;;;;;;;;;;5018386;28;20441;-79
2023/04/08 06:08:07;;;;;;;57.55;53.45;;;;;;;;;;5018789;28;20472;-79
2023/04/08 06:10:34;;;;;;;88.07;80.73;;;;;;;;;;5018648;28;20225;-79
2023/04/08 06:13:01;;;;;;;63.40;58.73;;;;;;;;;;5018405;28;20506;-79
2023/04/08 06:15:28;;;;;;;28.33;25.57;;;;;;;;;;5021499;28;20440;-80
2023/04/08 06:17:55;;;;;;;27.27;24.93;;;;;;;;;;5021803;28;20903;-79
2023/04/08 06:20:23;;;;;;;100.45;81.78;;;;;;;;;;5021810;28;20961;-80
2023/04/08 06:22:50;;;;;;;24.55;22.65;;;;;;;;;;5022234;28;20570;-80
2023/04/08 06:25:17;;;;;;;24.90;23.20;;;;;;;;;;5022150;28;20216;-80
2023/04/08 06:27:44;;;;;;;25.83;23.83;;;;;;;;;;5021376;28;20448;-79
2023/04/08 06:30:11;;;;;;;25.45;23.63;;;;;;;;;;5021444;28;20661;-79
2023/04/08 06:32:38;;;;;;;25.03;23.10;;;;;;;;;;5021863;28;20209;-79
2023/04/08 06:35:07;;;;;;;25.87;23.53;;;;;;;;;;5021219;28;20495;-80
2023/04/08 06:37:37;;;;;;;24.47;22.77;;;;;;;;;;5019691;28;20423;-79
2023/04/08 06:40:04;;;;;;;155.20;75.88;;;;;;;;;;5020516;28;20477;-79
2023/04/08 06:42:31;;;;;;;24.07;22.40;;;;;;;;;;5020466;28;20608;-79
2023/04/08 06:44:58;;;;;;;25.67;23.77;;;;;;;;;;5020956;28;20446;-79
2023/04/08 06:47:25;;;;;;;24.67;22.90;;;;;;;;;;5019880;28;20427;-79
2023/04/08 06:49:53;;;;;;;24.33;22.63;;;;;;;;;;5020332;28;20499;-80
2023/04/08 06:52:20;;;;;;;25.30;23.47;;;;;;;;;;5019828;28;20480;-80
2023/04/08 06:54:48;;;;;;;24.88;23.08;;;;;;;;;;5019874;28;20460;-79
2023/04/08 06:57:15;;;;;;;25.47;23.47;;;;;;;;;;5019126;28;20256;-80
2023/04/08 06:59:42;;;;;;;25.63;23.60;;;;;;;;;;5019228;28;20477;-79
2023/04/08 07:02:09;;;;;;;25.73;23.77;;;;;;;;;;5019697;28;20458;-79
2023/04/08 07:04:36;;;;;;;26.63;24.52;;;;;;;;;;5019977;28;20983;-79
2023/04/08 07:07:03;;;;;;;25.47;23.50;;;;;;;;;;5019003;28;20232;-79
2023/04/08 07:09:31;;;;;;;288.33;114.28;;;;;;;;;;5019529;28;20476;-79
2023/04/08 07:11:59;;;;;;;338.83;114.13;;;;;;;;;;5019420;28;20228;-79
2023/04/08 07:14:27;;;;;;;261.15;111.38;;;;;;;;;;5020803;28;20229;-79
2023/04/08 07:16:55;;;;;;;320.50;117.80;;;;;;;;;;5017635;28;20571;-79
2023/04/08 07:19:23;;;;;;;292.55;115.20;;;;;;;;;;5018168;28;20238;-80
2023/04/08 07:21:51;;;;;;;306.10;114.30;;;;;;;;;;5017433;28;20614;-79
2023/04/08 07:24:19;;;;;;;199.23;105.32;;;;;;;;;;5018809;28;20209;-79
2023/04/08 07:26:46;;;;;;;248.65;114.15;;;;;;;;;;5018479;28;20214;-79
2023/04/08 07:29:15;;;;;;;257.25;113.18;;;;;;;;;;5018265;28;20229;-79
2023/04/08 07:31:43;;;;;;;197.20;119.83;;;;;;;;;;5018210;28;20630;-79
2023/04/08 07:34:10;;;;;;;214.35;112.18;;;;;;;;;;5018017;28;20925;-80
2023/04/08 07:36:38;;;;;;;297.75;120.38;;;;;;;;;;5017633;28;20213;-79
2023/04/08 07:39:05;;;;;;;99.82;87.72;;;;;;;;;;5018781;28;20256;-79
2023/04/08 07:41:32;;;;;;;114.77;97.63;;;;;;;;;;5017991;28;20194;-79
2023/04/08 07:43:59;;;;;;;140.13;99.73;;;;;;;;;;5018122;28;20468;-79
2023/04/08 07:46:27;;;;;;;104.05;88.05;;;;;;;;;;5017684;28;20499;-79
2023/04/08 07:48:54;;;;;;;97.63;86.57;;;;;;;;;;5017403;28;20272;-79
2023/04/08 07:51:22;;;;;;;153.50;97.63;;;;;;;;;;5018368;28;20244;-79
2023/04/08 07:53:49;;;;;;;157.33;106.33;;;;;;;;;;5017606;28;20208;-80
2023/04/08 07:56:17;;;;;;;125.40;101.73;;;;;;;;;;5017052;28;20870;-79
2023/04/08 07:58:44;;;;;;;125.13;94.87;;;;;;;;;;5017056;28;20968;-79
2023/04/08 08:01:18;;;;;;;155.60;104.23;;;;;;;;;;5017092;28;20803;-79
2023/04/08 08:03:47;;;;;;;100.27;91.30;;;;;;;;;;5016901;28;20937;-79
2023/04/08 08:06:14;;;;;;;89.70;81.43;;;;;;;;;;5016842;28;20548;-79
2023/04/08 08:08:41;;;;;;;81.70;74.87;;;;;;;;;;5016314;28;20823;-79
2023/04/08 08:11:08;;;;;;;35.03;32.80;;;;;;;;;;5017127;28;20463;-79
2023/04/08 08:13:35;;;;;;;30.93;28.50;;;;;;;;;;5017172;28;20477;-79
2023/04/08 08:16:02;;;;;;;35.83;32.77;;;;;;;;;;5016749;28;20460;-79
2023/04/08 08:18:29;;;;;;;34.80;32.60;;;;;;;;;;5016490;28;20980;-79
2023/04/08 08:20:58;;;;;;;100.53;91.70;;;;;;;;;;5016887;28;20539;-79
2023/04/08 08:23:26;;;;;;;94.07;86.27;;;;;;;;;;5017269;28;20448;-79
2023/04/08 08:25:59;;;;;;;25.73;23.67;;;;;;;;;;5016043;28;20448;-79
2023/04/08 08:28:26;;;;;;;26.83;24.30;;;;;;;;;;5016542;28;20479;-80
2023/04/08 08:30:53;;;;;;;82.93;76.67;;;;;;;;;;5017029;28;20975;-79
2023/04/08 08:33:20;;;;;;;86.13;79.53;;;;;;;;;;5016627;28;20848;-79
2023/04/08 08:35:48;;;;;;;27.90;25.07;;;;;;;;;;5016657;28;20531;-79
2023/04/08 08:38:16;;;;;;;25.90;23.90;;;;;;;;;;5017350;28;20473;-79
2023/04/08 08:40:43;;;;;;;146.33;103.83;;;;;;;;;;5016630;28;20457;-79
2023/04/08 08:43:10;;;;;;;120.53;110.03;;;;;;;;;;5016411;28;20452;-79
2023/04/08 08:45:39;;;;;;;45.57;40.80;;;;;;;;;;5016501;28;20462;-79
2023/04/08 08:48:07;;;;;;;26.40;24.40;;;;;;;;;;5016677;28;20481;-79
2023/04/08 08:50:34;;;;;;;26.70;24.37;;;;;;;;;;5016889;28;20456;-79
2023/04/08 08:53:01;;;;;;;108.50;97.77;;;;;;;;;;5016421;28;21012;-79
2023/04/08 08:55:30;;;;;;;30.73;28.27;;;;;;;;;;5016632;28;20449;-80
2023/04/08 08:57:57;;;;;;;29.73;27.50;;;;;;;;;;5016585;28;20431;-80
2023/04/08 09:00:31;;;;;;;36.80;34.17;;;;;;;;;;5016495;28;20795;-79
2023/04/08 09:03:14;;;;;;;27.13;25.17;;;;;;;;;;5016818;28;20429;-79
2023/04/08 09:05:47;;;;;;;37.27;31.23;;;;;;;;;;5016131;28;20448;-79
2023/04/08 09:08:23;;;;;;;29.23;26.90;;;;;;;;;;5016772;28;20472;-79
2023/04/08 09:10:52;;;;;;;28.70;26.60;;;;;;;;;;5016087;28;20861;-79
2023/04/08 09:13:19;;;;;;;28.17;26.00;;;;;;;;;;5016364;28;20531;-79
2023/04/08 09:16:02;;;;;;;29.43;27.13;;;;;;;;;;5015769;28;20465;-79
2023/04/08 09:18:29;;;;;;;44.03;41.13;;;;;;;;;;5015808;28;20992;-79
2023/04/08 09:20:56;;;;;;;34.57;32.03;;;;;;;;;;5015032;28;20435;-80
2023/04/08 09:23:23;;;;;;;108.20;94.67;;;;;;;;;;5015980;28;20440;-79
2023/04/08 09:25:50;;;;;;;118.37;101.20;;;;;;;;;;5015819;28;20448;-79
2023/04/08 09:28:22;;;;;;;29.63;27.27;;;;;;;;;;5015961;28;20855;-79
2023/04/08 09:30:49;;;;;;;31.37;28.70;;;;;;;;;;5017808;28;20814;-80
2023/04/08 09:33:16;;;;;;;31.30;28.80;;;;;;;;;;5018264;28;20543;-80
2023/04/08 09:35:45;;;;;;;31.63;28.87;;;;;;;;;;5031060;28;20487;-80
2023/04/08 09:38:12;;;;;;;30.37;27.97;;;;;;;;;;5037566;28;20438;-79
2023/04/08 09:40:40;;;;;;;31.00;28.63;;;;;;;;;;5034457;28;20475;-79
2023/04/08 09:43:10;;;;;;;30.00;27.30;;;;;;;;;;5018685;28;20431;-80
2023/04/08 09:45:41;;;;;;;32.43;28.90;;;;;;;;;;5018553;28;20524;-80
2023/04/08 09:48:10;;;;;;;30.27;27.80;;;;;;;;;;5017908;28;20438;-79
2023/04/08 09:50:41;;;;;;;30.67;27.80;;;;;;;;;;5018317;28;20479;-80
2023/04/08 09:53:10;;;;;;;29.00;26.60;;;;;;;;;;5018203;28;20991;-80
2023/04/08 09:55:37;;;;;;;32.00;28.73;;;;;;;;;;5016979;28;20464;-80
2023/04/08 09:58:06;;;;;;;32.97;30.07;;;;;;;;;;5017719;28;20429;-79
2023/04/08 10:00:36;;;;;;;30.10;27.60;;;;;;;;;;5017437;28;20441;-79
2023/04/08 10:03:07;;;;;;;31.50;28.70;;;;;;;;;;5017036;28;20968;-79
2023/04/08 10:05:37;;;;;;;31.77;28.97;;;;;;;;;;5017473;28;20403;-80
2023/04/08 10:08:04;;;;;;;30.80;28.40;;;;;;;;;;5016959;28;20845;-79
2023/04/08 10:10:31;;;;;;;31.87;29.17;;;;;;;;;;5016826;28;20515;-79
2023/04/08 10:12:59;;;;;;;31.13;28.63;;;;;;;;;;5016824;28;20492;-79
2023/04/08 10:15:26;;;;;;;29.73;27.37;;;;;;;;;;5016841;28;20448;-79
2023/04/08 10:17:54;;;;;;;31.47;28.57;;;;;;;;;;5016638;28;20475;-78
2023/04/08 10:20:39;;;;;;;32.53;29.83;;;;;;;;;;5016544;28;20788;-79
2023/04/08 10:23:08;;;;;;;32.77;30.17;;;;;;;;;;5016923;28;20468;-79
2023/04/08 10:25:36;;;;;;;31.97;29.17;;;;;;;;;;5016354;28;20429;-79
2023/04/08 10:28:23;;;;;;;31.47;28.77;;;;;;;;;;5017045;28;20464;-79
2023/04/08 10:30:50;;;;;;;32.97;30.03;;;;;;;;;;5016572;28;20859;-79
2023/04/08 10:33:19;;;;;;;32.20;29.53;;;;;;;;;;5019103;28;20496;-80
2023/04/08 10:35:48;;;;;;;33.30;30.20;;;;;;;;;;5019649;28;20456;-79
2023/04/08 10:38:17;;;;;;;31.13;28.30;;;;;;;;;;5019975;28;20475;-79
2023/04/08 10:40:45;;;;;;;33.73;30.83;;;;;;;;;;5019124;28;20895;-80
2023/04/08 10:43:13;;;;;;;30.57;28.03;;;;;;;;;;5019366;28;20869;-80
2023/04/08 10:45:40;;;;;;;33.33;30.30;;;;;;;;;;5019274;28;20411;-80
2023/04/08 10:48:14;;;;;;;31.60;28.70;;;;;;;;;;5022329;28;20451;-80
2023/04/08 10:50:41;;;;;;;31.13;28.73;;;;;;;;;;5022704;28;20526;-80
2023/04/08 10:53:09;;;;;;;32.17;29.47;;;;;;;;;;5022188;28;20534;-80
2023/04/08 10:55:37;;;;;;;31.03;28.33;;;;;;;;;;5021348;28;20416;-80
2023/04/08 10:58:07;;;;;;;31.10;28.30;;;;;;;;;;5021564;28;20522;-80
2023/04/08 11:00:35;;;;;;;31.40;28.80;;;;;;;;;;5021787;28;20423;-80
2023/04/08 11:03:03;;;;;;;31.60;29.00;;;;;;;;;;5021537;28;20450;-79
2023/04/08 11:05:31;;;;;;;30.43;28.03;;;;;;;;;;5021037;28;20444;-80
2023/04/08 11:07:58;;;;;;;32.63;30.00;;;;;;;;;;5020747;28;20929;-79
2023/04/08 11:10:25;;;;;;;31.73;29.13;;;;;;;;;;5020414;28;20452;-79
2023/04/08 11:12:54;;;;;;;30.53;28.13;;;;;;;;;;5020313;28;20462;-80
2023/04/08 11:15:21;;;;;;;33.10;30.30;;;;;;;;;;5020632;28;20427;-79
2023/04/08 11:17:48;;;;;;;32.20;29.50;;;;;;;;;;5020083;28;20460;-79
2023/04/08 11:20:16;;;;;;;30.03;27.17;;;;;;;;;;5020157;28;20443;-79
2023/04/08 11:22:43;;;;;;;31.20;28.70;;;;;;;;;;5020336;28;20545;-79
2023/04/08 11:25:10;;;;;;;31.30;28.80;;;;;;;;;;5022161;28;20458;-80
2023/04/08 11:27:38;;;;;;;33.50;30.50;;;;;;;;;;5020894;28;20415;-80
2023/04/08 11:30:07;;;;;;;32.77;30.13;;;;;;;;;;5021281;28;20453;-79
2023/04/08 11:32:34;;;;;;;32.10;29.40;;;;;;;;;;5022766;28;20463;-80
2023/04/08 11:35:02;;;;;;;34.43;31.80;;;;;;;;;;5020603;28;20465;-80
2023/04/08 11:37:37;;;;;;;32.17;29.47;;;;;;;;;;5022086;28;20449;-81
2023/04/08 11:40:07;;;;;;;33.50;30.73;;;;;;;;;;5021168;28;20478;-79
2023/04/08 11:42:34;;;;;;;32.87;30.17;;;;;;;;;;5021673;28;20460;-80
2023/04/08 11:45:02;;;;;;;32.90;30.33;;;;;;;;;;5020036;28;20461;-80
2023/04/08 11:47:33;;;;;;;33.30;30.57;;;;;;;;;;5020456;28;20452;-81
2023/04/08 11:50:01;;;;;;;33.80;30.67;;;;;;;;;;5020391;28;20464;-80
2023/04/08 11:52:41;;;;;;;34.67;31.60;;;;;;;;;;5021490;28;20459;-81
2023/04/08 11:55:08;;;;;;;33.20;30.30;;;;;;;;;;5021397;28;20463;-81
2023/04/08 11:57:36;;;;;;;33.73;30.87;;;;;;;;;;5021506;28;20483;-80
2023/04/08 12:00:05;;;;;;;34.70;31.77;;;;;;;;;;5020340;28;20534;-80
2023/04/08 12:02:33;;;;;;;34.80;31.77;;;;;;;;;;5020085;28;20514;-80
2023/04/08 12:05:01;;;;;;;34.97;31.77;;;;;;;;;;5019751;28;20502;-80
2023/04/08 12:07:28;;;;;;;33.97;31.10;;;;;;;;;;5020051;28;20458;-80
2023/04/08 12:09:55;;;;;;;34.97;31.77;;;;;;;;;;5020333;28;20496;-80
2023/04/08 12:12:22;;;;;;;34.93;31.83;;;;;;;;;;5020770;28;20818;-80
2023/04/08 12:14:49;;;;;;;34.83;31.73;;;;;;;;;;5020168;28;20441;-80
2023/04/08 12:17:16;;;;;;;31.60;28.90;;;;;;;;;;5019422;28;20472;-80
2023/04/08 12:19:44;;;;;;;33.83;30.80;;;;;;;;;;5020780;28;20464;-80
2023/04/08 12:22:11;;;;;;;33.03;30.30;;;;;;;;;;5019879;28;20461;-80
2023/04/08 12:24:38;;;;;;;32.53;30.00;;;;;;;;;;5019170;28;20457;-80
2023/04/08 12:27:05;;;;;;;34.57;31.60;;;;;;;;;;5019602;28;20453;-80
2023/04/08 12:29:33;;;;;;;34.63;31.53;;;;;;;;;;5019780;28;20460;-80
2023/04/08 12:32:01;;;;;;;34.37;31.40;;;;;;;;;;5020330;28;20431;-80
2023/04/08 12:34:28;;;;;;;33.33;30.10;;;;;;;;;;5019539;28;20431;-80
2023/04/08 12:36:57;;;;;;;31.27;28.70;;;;;;;;;;5019523;28;20478;-80
2023/04/08 12:39:24;;;;;;;34.33;31.40;;;;;;;;;;5019873;28;20455;-80
2023/04/08 12:41:51;;;;;;;33.83;30.83;;;;;;;;;;5019547;28;20431;-80
2023/04/08 12:44:18;;;;;;;34.73;31.57;;;;;;;;;;5017902;28;20461;-80
2023/04/08 12:46:46;;;;;;;34.57;31.57;;;;;;;;;;5018690;28;20427;-80
2023/04/08 12:49:13;;;;;;;33.20;30.23;;;;;;;;;;5019845;28;20494;-80
2023/04/08 12:51:39;;;;;;;33.20;30.43;;;;;;;;;;5020362;28;20431;-80
2023/04/08 12:54:08;;;;;;;33.53;30.83;;;;;;;;;;5020399;28;20514;-80
2023/04/08 12:56:35;;;;;;;32.10;29.40;;;;;;;;;;5019877;28;20818;-80
2023/04/08 12:59:02;;;;;;;33.60;30.60;;;;;;;;;;5020202;28;20480;-80
2023/04/08 13:01:30;;;;;;;33.73;30.80;;;;;;;;;;5019750;28;20460;-80
2023/04/08 13:03:57;;;;;;;34.40;31.20;;;;;;;;;;5019820;28;20542;-80
2023/04/08 13:06:24;;;;;;;36.27;32.63;;;;;;;;;;5019782;28;20463;-80
2023/04/08 13:08:52;;;;;;;34.63;31.53;;;;;;;;;;5019783;28;20454;-81
2023/04/08 13:11:21;;;;;;;35.10;31.70;;;;;;;;;;5018288;28;20440;-80
2023/04/08 13:13:48;;;;;;;35.00;31.97;;;;;;;;;;5017557;28;20484;-80
2023/04/08 13:16:15;;;;;;;36.57;33.23;;;;;;;;;;5017480;28;20423;-81
2023/04/08 13:18:42;;;;;;;36.67;33.50;;;;;;;;;;5017906;28;20468;-80
2023/04/08 13:21:09;;;;;;;35.37;32.17;;;;;;;;;;5017185;28;20460;-80
2023/04/08 13:23:36;;;;;;;36.60;33.37;;;;;;;;;;5016726;28;20441;-80
2023/04/08 13:26:03;;;;;;;35.07;31.50;;;;;;;;;;5017297;28;20510;-79
2023/04/08 13:28:32;;;;;;;35.10;31.97;;;;;;;;;;5017074;28;20469;-80
2023/04/08 13:30:59;;;;;;;33.90;31.20;;;;;;;;;;5017168;28;20427;-80
2023/04/08 13:33:26;;;;;;;35.40;32.20;;;;;;;;;;5017016;28;20514;-80
2023/04/08 13:35:53;;;;;;;37.33;33.67;;;;;;;;;;5016548;28;20460;-79
2023/04/08 13:38:20;;;;;;;34.60;31.50;;;;;;;;;;5016732;28;20831;-80
2023/04/08 13:40:47;;;;;;;37.40;33.90;;;;;;;;;;5017504;28;20423;-80
2023/04/08 13:43:14;;;;;;;34.27;31.17;;;;;;;;;;5016757;28;20444;-80
2023/04/08 13:45:43;;;;;;;35.17;31.90;;;;;;;;;;5017430;28;20532;-80
2023/04/08 13:48:11;;;;;;;35.27;32.07;;;;;;;;;;5016766;28;20482;-80
2023/04/08 13:50:39;;;;;;;37.83;34.33;;;;;;;;;;5016932;28;20540;-80
2023/04/08 13:53:06;;;;;;;35.00;31.83;;;;;;;;;;5017014;28;20492;-79
2023/04/08 13:55:33;;;;;;;36.53;33.03;;;;;;;;;;5016142;28;20500;-81
2023/04/08 13:58:00;;;;;;;35.60;32.40;;;;;;;;;;5028042;28;20497;-78
2023/04/08 14:00:27;;;;;;;34.07;31.10;;;;;;;;;;5037400;28;20411;-80
2023/04/08 14:02:55;;;;;;;34.43;31.17;;;;;;;;;;5036841;28;20443;-80
2023/04/08 14:05:22;;;;;;;36.43;33.20;;;;;;;;;;5019323;28;20481;-80
2023/04/08 14:07:49;;;;;;;34.67;31.40;;;;;;;;;;5020643;28;20499;-80
2023/04/08 14:10:16;;;;;;;33.37;30.40;;;;;;;;;;5021744;28;20471;-80
2023/04/08 14:12:45;;;;;;;32.83;29.97;;;;;;;;;;5021970;28;21042;-80
2023/04/08 14:15:12;;;;;;;35.40;31.90;;;;;;;;;;5021937;28;20463;-80
2023/04/08 14:17:39;;;;;;;35.00;32.00;;;;;;;;;;5021063;28;20427;-79